createdAt,value
2022-11-21T00:01:52.410Z,-3.80
2022-11-21T00:04:21.683Z,-3.58
2022-11-21T00:06:53.181Z,-3.57
2022-11-21T00:09:22.614Z,-3.61
2022-11-21T00:11:53.991Z,-3.59
2022-11-21T00:14:28.357Z,-3.57
2022-11-21T00:16:59.798Z,-3.56
2022-11-21T00:19:29.054Z,-3.49
2022-11-21T00:21:58.345Z,-3.60
2022-11-21T00:24:27.644Z,-3.60
2022-11-21T00:27:02.083Z,-3.61
2022-11-21T00:29:31.566Z,-3.66
2022-11-21T00:32:02.718Z,-3.91
2022-11-21T00:34:32.082Z,-3.90
2022-11-21T00:37:01.363Z,-4.03
2022-11-21T00:39:30.638Z,-4.00
2022-11-21T00:41:59.819Z,-4.06
2022-11-21T00:44:29.205Z,-3.91
2022-11-21T00:46:58.705Z,-3.92
2022-11-21T00:49:30.184Z,-3.88
2022-11-21T00:51:59.404Z,-4.12
2022-11-21T00:54:28.903Z,-4.23
2022-11-21T00:56:58.396Z,-4.12
2022-11-21T00:59:27.456Z,-4.11
2022-11-21T01:02:01.743Z,-4.10
2022-11-21T01:04:35.327Z,-4.06
2022-11-21T01:07:04.743Z,-4.16
2022-11-21T01:09:33.843Z,-4.13
2022-11-21T01:12:02.892Z,-4.16
2022-11-21T01:14:32.128Z,-4.26
2022-11-21T01:17:01.324Z,-4.29
2022-11-21T01:19:30.387Z,-4.30
2022-11-21T01:22:01.530Z,-4.30
2022-11-21T01:24:30.950Z,-4.25
2022-11-21T01:27:00.017Z,-4.26
2022-11-21T01:29:29.715Z,-4.42
2022-11-21T01:31:58.869Z,-4.28
2022-11-21T01:34:28.863Z,-4.36
2022-11-21T01:37:03.224Z,-4.35
2022-11-21T01:39:34.440Z,-4.45
2022-11-21T01:42:03.638Z,-4.50
2022-11-21T01:44:54.250Z,-4.33
2022-11-21T01:47:24.437Z,-4.42
2022-11-21T01:49:56.200Z,-4.36
2022-11-21T01:52:27.734Z,-4.40
2022-11-21T01:55:01.779Z,-4.46
2022-11-21T01:57:39.163Z,-4.54
2022-11-21T02:00:12.452Z,-4.49
2022-11-21T02:02:46.286Z,-4.63
2022-11-21T02:05:21.268Z,-4.62
2022-11-21T02:07:59.247Z,-4.51
2022-11-21T02:10:30.671Z,-4.52
2022-11-21T02:13:06.346Z,-4.54
2022-11-21T02:15:35.635Z,-4.57
2022-11-21T02:18:04.732Z,-4.52
2022-11-21T02:20:52.209Z,-4.69
2022-11-21T02:23:27.341Z,-4.72
2022-11-21T02:25:58.611Z,-4.76
2022-11-21T02:28:28.606Z,-4.78
2022-11-21T02:30:57.704Z,-4.87
2022-11-21T02:33:26.947Z,-5.00
2022-11-21T02:36:00.204Z,-4.82
2022-11-21T02:38:44.537Z,-4.66
2022-11-21T02:41:25.992Z,-4.62
2022-11-21T02:44:06.544Z,-4.67
2022-11-21T02:46:37.057Z,-4.73
2022-11-21T02:49:14.743Z,-4.85
2022-11-21T02:51:43.905Z,-5.11
2022-11-21T02:54:13.021Z,-5.17
2022-11-21T02:56:44.282Z,-5.11
2022-11-21T02:59:13.398Z,-5.20
2022-11-21T03:01:42.556Z,-5.45
2022-11-21T03:04:12.063Z,-5.35
2022-11-21T03:06:41.178Z,-5.47
2022-11-21T03:09:12.278Z,-5.48
2022-11-21T03:11:43.527Z,-5.53
2022-11-21T03:14:13.117Z,-5.50
2022-11-21T03:16:42.335Z,-5.36
2022-11-21T03:19:11.501Z,-5.39
2022-11-21T03:21:46.182Z,-5.56
2022-11-21T03:24:15.598Z,-5.40
2022-11-21T03:26:46.887Z,-5.44
2022-11-21T03:29:16.048Z,-5.54
2022-11-21T03:31:45.551Z,-5.54
2022-11-21T03:34:14.764Z,-5.56
2022-11-21T03:36:43.947Z,-5.81
2022-11-21T03:39:13.196Z,-5.49
2022-11-21T03:41:47.323Z,-5.39
2022-11-21T03:44:18.777Z,-5.38
2022-11-21T03:46:49.103Z,-5.42
2022-11-21T03:49:18.507Z,-5.45
2022-11-21T03:51:47.689Z,-5.49
2022-11-21T03:56:51.820Z,-5.35
2022-11-21T03:59:23.104Z,-5.41
2022-11-21T04:01:57.373Z,-5.36
2022-11-21T04:04:26.926Z,-5.23
2022-11-21T04:06:56.258Z,-5.31
2022-11-21T04:09:25.965Z,-5.29
2022-11-21T04:11:55.270Z,-5.35
2022-11-21T04:14:26.743Z,-5.34
2022-11-21T04:16:56.188Z,-5.45
2022-11-21T04:19:25.418Z,-5.39
2022-11-21T04:21:54.956Z,-5.31
2022-11-21T04:24:24.058Z,-5.32
2022-11-21T04:26:53.275Z,-5.31
2022-11-21T04:29:22.619Z,-5.29
2022-11-21T04:31:54.003Z,-5.18
2022-11-21T04:34:23.368Z,-5.24
2022-11-21T04:36:52.587Z,-5.33
2022-11-21T04:39:21.856Z,-5.25
2022-11-21T04:41:56.212Z,-5.24
2022-11-21T04:44:26.145Z,-5.32
2022-11-21T04:47:05.526Z,-5.30
2022-11-21T04:49:35.008Z,-5.44
2022-11-21T04:52:10.027Z,-5.17
2022-11-21T04:54:39.322Z,-5.09
2022-11-21T04:57:09.885Z,-4.98
2022-11-21T04:59:39.189Z,-5.03
2022-11-21T05:02:10.889Z,-4.96
2022-11-21T05:04:40.778Z,-5.03
2022-11-21T05:07:10.425Z,-5.14
2022-11-21T05:09:44.804Z,-5.14
2022-11-21T05:12:26.861Z,-5.22
2022-11-21T05:15:02.710Z,-5.23
2022-11-21T05:17:35.308Z,-5.32
2022-11-21T05:20:05.170Z,-5.41
2022-11-21T05:22:34.255Z,-5.39
2022-11-21T05:25:03.683Z,-5.34
2022-11-21T05:27:38.006Z,-5.28
2022-11-21T05:30:08.263Z,-5.28
2022-11-21T05:32:39.492Z,-5.21
2022-11-21T05:35:09.270Z,-5.22
2022-11-21T05:37:38.428Z,-5.17
2022-11-21T05:40:09.476Z,-5.21
2022-11-21T05:42:54.326Z,-5.08
2022-11-21T05:45:23.588Z,-5.11
2022-11-21T05:47:54.726Z,-5.44
2022-11-21T05:50:29.148Z,-5.15
2022-11-21T05:53:02.681Z,-5.15
2022-11-21T05:55:32.336Z,-5.07
2022-11-21T05:58:02.227Z,-5.09
2022-11-21T06:00:32.732Z,-5.03
2022-11-21T06:03:28.837Z,-4.94
2022-11-21T06:06:07.994Z,-4.98
2022-11-21T06:08:39.069Z,-4.96
2022-11-21T06:11:09.844Z,-4.93
2022-11-21T06:13:39.618Z,-4.94
2022-11-21T06:16:16.059Z,-5.11
2022-11-21T06:18:49.955Z,-5.00
2022-11-21T06:21:22.403Z,-5.00
2022-11-21T06:23:53.818Z,-4.91
2022-11-21T06:26:24.818Z,-4.97
2022-11-21T06:28:54.420Z,-5.05
2022-11-21T06:31:25.081Z,-5.18
2022-11-21T06:33:57.629Z,-5.18
2022-11-21T06:36:27.998Z,-5.19
2022-11-21T06:38:58.195Z,-5.30
2022-11-21T06:41:34.853Z,-5.22
2022-11-21T06:44:04.185Z,-5.22
2022-11-21T06:46:33.426Z,-5.20
2022-11-21T06:49:10.492Z,-5.10
2022-11-21T06:51:46.905Z,-5.16
2022-11-21T06:54:21.292Z,-5.06
2022-11-21T06:56:55.175Z,-5.03
2022-11-21T06:59:29.571Z,-5.06
2022-11-21T07:01:58.766Z,-5.02
2022-11-21T07:04:30.074Z,-5.04
2022-11-21T07:06:59.621Z,-5.07
2022-11-21T07:09:33.675Z,-5.33
2022-11-21T07:12:23.560Z,-5.15
2022-11-21T07:14:51.388Z,-5.10
2022-11-21T07:17:23.547Z,-5.03
2022-11-21T07:19:55.426Z,-5.10
2022-11-21T07:22:24.566Z,-5.04
2022-11-21T07:24:53.777Z,-4.99
2022-11-21T07:27:23.146Z,-4.87
2022-11-21T07:29:52.296Z,-4.84
2022-11-21T07:32:21.581Z,-4.80
2022-11-21T07:34:50.791Z,-4.76
2022-11-21T07:37:22.305Z,-4.72
2022-11-21T07:39:51.596Z,-4.75
2022-11-21T07:42:20.832Z,-4.53
2022-11-21T07:44:49.980Z,-4.38
2022-11-21T07:47:19.256Z,-4.44
2022-11-21T07:49:50.194Z,-4.58
2022-11-21T07:52:26.508Z,-4.71
2022-11-21T07:54:55.698Z,-4.65
2022-11-21T07:57:24.921Z,-4.45
2022-11-21T08:02:30.055Z,-4.30
2022-11-21T08:07:41.789Z,-4.42
2022-11-21T08:10:11.333Z,-4.45
2022-11-21T08:12:41.247Z,-4.54
2022-11-21T08:15:16.420Z,-4.48
2022-11-21T08:17:45.809Z,-4.44
2022-11-21T08:20:15.491Z,-4.49
2022-11-21T08:22:46.820Z,-4.37
2022-11-21T08:25:16.455Z,-4.19
2022-11-21T08:27:45.559Z,-4.02
2022-11-21T08:30:16.458Z,-4.10
2022-11-21T08:32:45.717Z,-4.08
2022-11-21T08:35:14.842Z,-4.26
2022-11-21T08:37:46.103Z,-4.35
2022-11-21T08:40:15.457Z,-4.31
2022-11-21T08:42:45.589Z,-4.53
2022-11-21T08:45:14.660Z,-4.43
2022-11-21T08:47:44.520Z,-4.29
2022-11-21T08:50:14.202Z,-4.42
2022-11-21T08:52:45.543Z,-4.10
2022-11-21T08:55:15.388Z,-4.26
2022-11-21T08:57:49.548Z,-4.24
2022-11-21T09:00:19.383Z,-4.12
2022-11-21T09:02:48.620Z,-4.11
2022-11-21T09:05:18.039Z,-4.19
2022-11-21T09:07:49.562Z,-4.21
2022-11-21T09:10:19.026Z,-4.08
2022-11-21T09:12:48.393Z,-4.08
2022-11-21T09:15:30.720Z,-3.99
2022-11-21T09:18:07.451Z,-4.05
2022-11-21T09:20:42.263Z,-4.03
2022-11-21T09:23:14.973Z,-4.12
2022-11-21T09:25:45.046Z,-4.17
2022-11-21T09:28:15.791Z,-4.28
2022-11-21T09:30:46.327Z,-4.13
2022-11-21T09:33:17.089Z,-4.10
2022-11-21T09:35:51.687Z,-4.07
2022-11-21T09:38:24.359Z,-4.08
2022-11-21T09:40:58.952Z,-4.01
2022-11-21T09:43:46.787Z,-4.01
2022-11-21T09:46:30.404Z,-4.01
2022-11-21T09:49:03.089Z,-4.16
2022-11-21T09:51:33.623Z,-4.26
2022-11-21T09:54:07.480Z,-4.15
2022-11-21T09:56:50.881Z,-4.22
2022-11-21T09:59:34.894Z,-4.24
2022-11-21T10:02:22.712Z,-4.15
2022-11-21T10:04:54.465Z,-4.29
2022-11-21T10:07:27.881Z,-4.25
2022-11-21T10:10:19.759Z,-4.29
2022-11-21T10:13:08.111Z,-4.39
2022-11-21T10:15:52.200Z,-4.44
2022-11-21T10:18:47.234Z,-4.37
2022-11-21T10:21:34.310Z,-4.51
2022-11-21T10:24:19.266Z,-4.48
2022-11-21T10:26:55.576Z,-4.50
2022-11-21T10:29:29.834Z,-4.53
2022-11-21T10:32:04.802Z,-4.39
2022-11-21T10:34:43.943Z,-4.31
2022-11-21T10:37:18.964Z,-4.26
2022-11-21T10:39:51.811Z,-4.21
2022-11-21T10:42:34.262Z,-4.24
2022-11-21T10:45:17.953Z,-4.44
2022-11-21T10:47:48.729Z,-4.50
2022-11-21T10:50:34.476Z,-4.82
2022-11-21T10:53:41.059Z,-4.61
2022-11-21T10:56:14.553Z,-4.60
2022-11-21T10:58:48.368Z,-4.51
2022-11-21T11:01:29.832Z,-4.51
2022-11-21T11:04:27.793Z,-4.37
2022-11-21T11:09:36.272Z,-4.31
2022-11-21T11:12:47.602Z,-4.27
2022-11-21T11:15:25.183Z,-4.22
2022-11-21T11:17:57.430Z,-4.32
2022-11-21T11:20:39.603Z,-4.58
2022-11-21T11:23:28.383Z,-4.43
2022-11-21T11:25:59.510Z,-4.54
2022-11-21T11:28:35.610Z,-4.45
2022-11-21T11:31:07.094Z,-4.35
2022-11-21T11:33:42.704Z,-4.34
2022-11-21T11:36:15.821Z,-4.39
2022-11-21T11:38:50.602Z,-4.31
2022-11-21T11:42:01.977Z,-4.27
2022-11-21T11:44:54.484Z,-4.46
2022-11-21T11:47:32.828Z,-4.54
2022-11-21T11:50:14.562Z,-4.51
2022-11-21T11:52:54.120Z,-4.28
2022-11-21T11:55:31.432Z,-4.36
2022-11-21T11:58:13.084Z,-4.37
2022-11-21T12:00:52.577Z,-4.32
2022-11-21T12:03:31.288Z,-4.26
2022-11-21T12:06:09.600Z,-4.49
2022-11-21T12:08:47.600Z,-4.42
2022-11-21T12:11:45.354Z,-4.51
2022-11-21T12:14:34.857Z,-4.57
2022-11-21T12:17:07.719Z,-4.62
2022-11-21T12:19:40.339Z,-4.60
2022-11-21T12:22:14.638Z,-4.42
2022-11-21T12:24:43.919Z,-4.81
2022-11-21T12:27:34.495Z,-4.63
2022-11-21T12:30:23.094Z,-4.75
2022-11-21T12:33:06.617Z,-4.80
2022-11-21T12:36:16.750Z,-4.68
2022-11-21T12:39:09.137Z,-4.65
2022-11-21T12:41:58.676Z,-4.81
2022-11-21T12:44:40.903Z,-4.79
2022-11-21T12:47:25.350Z,-4.77
2022-11-21T12:55:37.053Z,-4.76
2022-11-21T12:58:16.868Z,-4.79
2022-11-21T13:00:57.304Z,-4.80
2022-11-21T13:03:45.953Z,-4.78
2022-11-21T13:06:19.820Z,-4.66
2022-11-21T13:08:51.365Z,-4.68
2022-11-21T13:11:51.189Z,-4.78
2022-11-21T13:14:27.313Z,-5.06
2022-11-21T13:17:10.899Z,-4.83
2022-11-21T13:19:50.565Z,-4.91
2022-11-21T13:22:49.442Z,-4.87
2022-11-21T13:25:48.073Z,-4.89
2022-11-21T13:28:45.837Z,-4.94
2022-11-21T13:31:30.490Z,-5.10
2022-11-21T13:34:00.378Z,-5.10
2022-11-21T13:36:43.709Z,-5.11
2022-11-21T13:39:31.691Z,-5.02
2022-11-21T13:42:19.918Z,-5.01
2022-11-21T13:44:53.565Z,-5.17
2022-11-21T13:47:56.669Z,-5.06
2022-11-21T13:50:45.290Z,-5.11
2022-11-21T13:53:30.883Z,-5.23
2022-11-21T13:56:12.853Z,-5.12
2022-11-21T13:58:56.387Z,-5.07
2022-11-21T14:01:58.360Z,-5.08
2022-11-21T14:05:05.348Z,-5.06
2022-11-21T14:07:37.363Z,-5.13
2022-11-21T14:10:20.062Z,-5.11
2022-11-21T14:12:51.643Z,-5.18
2022-11-21T14:15:32.673Z,-5.18
2022-11-21T14:18:04.587Z,-5.17
2022-11-21T14:20:50.321Z,-5.11
2022-11-21T14:23:21.965Z,-5.06
2022-11-21T14:25:53.562Z,-5.07
2022-11-21T14:28:26.491Z,-5.11
2022-11-21T14:30:59.325Z,-5.33
2022-11-21T14:33:37.148Z,-5.16
2022-11-21T14:36:16.207Z,-5.25
2022-11-21T14:38:51.006Z,-5.39
2022-11-21T14:41:33.803Z,-5.29
2022-11-21T14:44:09.940Z,-5.27
2022-11-21T14:46:40.826Z,-5.28
2022-11-21T14:49:25.204Z,-5.20
2022-11-21T14:52:00.760Z,-5.23
2022-11-21T14:54:38.516Z,-5.33
2022-11-21T14:57:09.893Z,-5.13
2022-11-21T14:59:43.160Z,-5.17
2022-11-21T15:02:15.028Z,-5.09
2022-11-21T15:07:23.690Z,-4.89
2022-11-21T15:12:54.388Z,-4.91
2022-11-21T15:15:32.907Z,-5.01
2022-11-21T15:18:27.377Z,-4.98
2022-11-21T15:21:00.056Z,-5.06
2022-11-21T15:23:31.480Z,-5.00
2022-11-21T15:26:06.678Z,-5.14
2022-11-21T15:28:35.868Z,-5.04
2022-11-21T15:31:18.922Z,-5.09
2022-11-21T15:34:27.776Z,-4.95
2022-11-21T15:37:10.450Z,-5.08
2022-11-21T15:39:45.836Z,-5.11
2022-11-21T15:42:36.022Z,-5.30
2022-11-21T15:45:26.458Z,-5.28
2022-11-21T15:47:56.387Z,-5.33
2022-11-21T15:50:27.171Z,-5.28
2022-11-21T15:52:58.634Z,-5.30
2022-11-21T15:55:31.049Z,-5.28
2022-11-21T15:58:05.578Z,-5.21
2022-11-21T16:00:35.263Z,-5.29
2022-11-21T16:03:04.433Z,-5.24
2022-11-21T16:05:33.783Z,-5.18
2022-11-21T16:08:04.962Z,-5.06
2022-11-21T16:10:40.730Z,-5.06
2022-11-21T16:13:14.984Z,-5.24
2022-11-21T16:15:44.163Z,-5.30
2022-11-21T16:18:13.410Z,-5.32
2022-11-21T16:20:42.676Z,-5.13
2022-11-21T16:23:14.437Z,-5.00
2022-11-21T16:25:55.058Z,-5.10
2022-11-21T16:28:24.753Z,-5.24
2022-11-21T16:30:54.063Z,-5.18
2022-11-21T16:33:27.153Z,-5.11
2022-11-21T16:35:57.316Z,-5.05
2022-11-21T16:38:30.256Z,-5.02
2022-11-21T16:41:06.139Z,-5.09
2022-11-21T16:43:35.380Z,-5.06
2022-11-21T16:46:09.739Z,-5.15
2022-11-21T16:48:40.666Z,-5.15
2022-11-21T16:51:14.260Z,-5.18
2022-11-21T16:53:45.918Z,-5.03
2022-11-21T16:56:15.787Z,-5.01
2022-11-21T16:58:45.273Z,-5.00
2022-11-21T17:01:16.371Z,-5.10
2022-11-21T17:03:47.662Z,-5.04
2022-11-21T17:06:19.555Z,-5.07
2022-11-21T17:08:50.613Z,-5.02
2022-11-21T17:11:22.037Z,-5.19
2022-11-21T17:13:52.941Z,-5.17
2022-11-21T17:16:23.864Z,-4.92
2022-11-21T17:18:55.531Z,-4.96
2022-11-21T17:21:25.566Z,-5.00
2022-11-21T17:23:56.985Z,-5.33
2022-11-21T17:29:04.568Z,-4.93
2022-11-21T17:31:34.139Z,-4.92
2022-11-21T17:34:04.152Z,-5.00
2022-11-21T17:36:34.183Z,-4.95
2022-11-21T17:39:12.324Z,-5.02
2022-11-21T17:41:41.774Z,-5.27
2022-11-21T17:44:14.887Z,-5.16
2022-11-21T17:46:44.325Z,-5.12
2022-11-21T17:49:14.023Z,-5.28
2022-11-21T17:51:43.894Z,-5.31
2022-11-21T17:54:15.306Z,-5.46
2022-11-21T17:56:47.388Z,-5.21
2022-11-21T17:59:20.832Z,-5.28
2022-11-21T18:01:58.498Z,-5.73
2022-11-21T18:04:28.281Z,-5.48
2022-11-21T18:06:58.268Z,-5.51
2022-11-21T18:09:30.201Z,-5.45
2022-11-21T18:12:00.283Z,-5.67
2022-11-21T18:14:30.702Z,-5.50
2022-11-21T18:16:59.994Z,-5.38
2022-11-21T18:19:29.267Z,-5.23
2022-11-21T18:24:40.909Z,-5.51
2022-11-21T18:27:10.423Z,-5.45
2022-11-21T18:29:44.860Z,-5.49
2022-11-21T18:32:14.206Z,-5.76
2022-11-21T18:34:43.814Z,-5.36
2022-11-21T18:37:18.376Z,-5.42
2022-11-21T18:39:49.842Z,-5.42
2022-11-21T18:42:19.114Z,-5.39
2022-11-21T18:44:48.585Z,-5.35
2022-11-21T18:47:20.927Z,-5.40
2022-11-21T18:49:55.708Z,-5.57
2022-11-21T18:52:25.059Z,-5.45
2022-11-21T18:54:56.335Z,-5.46
2022-11-21T18:57:25.774Z,-5.45
2022-11-21T18:59:55.070Z,-5.51
2022-11-21T19:02:29.657Z,-5.60
2022-11-21T19:04:58.913Z,-5.58
2022-11-21T19:07:28.480Z,-5.59
2022-11-21T19:10:20.661Z,-5.57
2022-11-21T19:12:49.400Z,-5.52
2022-11-21T19:15:23.697Z,-5.53
2022-11-21T19:17:52.978Z,-5.50
2022-11-21T19:20:22.233Z,-5.60
2022-11-21T19:22:52.220Z,-5.70
2022-11-21T19:25:23.565Z,-5.66
2022-11-21T19:27:59.579Z,-5.79
2022-11-21T19:30:30.012Z,-5.82
2022-11-21T19:33:06.617Z,-5.78
2022-11-21T19:35:39.350Z,-5.80
2022-11-21T19:41:03.633Z,-5.76
2022-11-21T19:43:33.724Z,-5.77
2022-11-21T19:46:05.009Z,-5.79
2022-11-21T19:48:34.481Z,-5.73
2022-11-21T19:51:05.278Z,-5.72
2022-11-21T19:53:37.960Z,-5.65
2022-11-21T19:56:14.873Z,-5.67
2022-11-21T19:58:49.865Z,-5.63
2022-11-21T20:01:21.219Z,-5.73
2022-11-21T20:03:52.437Z,-5.81
2022-11-21T20:06:23.908Z,-5.69
2022-11-21T20:08:55.104Z,-5.70
2022-11-21T20:11:28.387Z,-5.69
2022-11-21T20:13:57.934Z,-5.75
2022-11-21T20:16:28.919Z,-5.80
2022-11-21T20:19:07.757Z,-5.75
2022-11-21T20:21:38.652Z,-5.66
2022-11-21T20:24:14.215Z,-5.71
2022-11-21T20:26:46.721Z,-5.69
2022-11-21T20:29:16.600Z,-5.74
2022-11-21T20:31:47.841Z,-5.79
2022-11-21T20:34:17.137Z,-5.68
2022-11-21T20:36:46.440Z,-5.67
2022-11-21T20:39:16.823Z,-5.59
2022-11-21T20:41:55.343Z,-5.47
2022-11-21T20:47:18.928Z,-5.35
2022-11-21T20:49:48.149Z,-5.54
2022-11-21T20:55:12.779Z,-5.51
2022-11-21T20:57:44.123Z,-5.74
2022-11-21T21:00:15.636Z,-5.67
2022-11-21T21:02:44.900Z,-5.72
2022-11-21T21:05:14.099Z,-5.73
2022-11-21T21:07:43.442Z,-5.67
2022-11-21T21:10:12.969Z,-5.90
2022-11-21T21:12:48.487Z,-5.73
2022-11-21T21:15:18.268Z,-5.70
2022-11-21T21:17:47.434Z,-5.80
2022-11-21T21:20:16.803Z,-5.78
2022-11-21T21:22:45.986Z,-5.84
2022-11-21T21:25:15.420Z,-5.74
2022-11-21T21:27:49.886Z,-5.59
2022-11-21T21:30:20.391Z,-5.59
2022-11-21T21:32:49.485Z,-5.61
2022-11-21T21:35:19.104Z,-5.57
2022-11-21T21:37:48.400Z,-5.69
2022-11-21T21:40:18.666Z,-5.72
2022-11-21T21:42:50.023Z,-5.80
2022-11-21T21:45:19.644Z,-5.79
2022-11-21T21:47:48.982Z,-5.91
2022-11-21T21:50:23.291Z,-5.66
2022-11-21T21:52:52.470Z,-5.63
2022-11-21T21:55:21.739Z,-5.72
2022-11-21T21:57:53.309Z,-5.57
2022-11-21T22:00:22.750Z,-5.67
2022-11-21T22:02:51.912Z,-5.48
2022-11-21T22:05:26.166Z,-5.47
2022-11-21T22:07:55.464Z,-5.38
2022-11-21T22:10:24.680Z,-5.40
2022-11-21T22:12:56.711Z,-5.39
2022-11-21T22:15:26.017Z,-5.34
2022-11-21T22:17:55.260Z,-5.32
2022-11-21T22:20:24.494Z,-5.35
2022-11-21T22:22:57.648Z,-5.52
2022-11-21T22:25:34.624Z,-5.48
2022-11-21T22:28:06.139Z,-5.59
2022-11-21T22:30:35.439Z,-5.39
2022-11-21T22:33:04.689Z,-5.35
2022-11-21T22:35:34.353Z,-5.34
2022-11-21T22:38:03.698Z,-5.50
2022-11-21T22:40:33.894Z,-5.33
2022-11-21T22:43:03.093Z,-5.47
2022-11-21T22:45:34.852Z,-5.57
2022-11-21T22:48:03.728Z,-5.52
2022-11-21T22:50:33.231Z,-5.73
2022-11-21T22:53:02.608Z,-5.59
2022-11-21T22:55:31.795Z,-5.63
2022-11-21T22:58:01.119Z,-5.64
2022-11-21T23:00:42.627Z,-5.52
2022-11-21T23:03:12.417Z,-5.57
2022-11-21T23:05:41.550Z,-5.58
2022-11-21T23:08:10.802Z,-5.62
2022-11-21T23:10:39.953Z,-5.68
2022-11-21T23:13:09.285Z,-5.68
2022-11-21T23:15:40.475Z,-5.66
2022-11-21T23:18:14.830Z,-5.62
2022-11-21T23:20:45.283Z,-5.54
2022-11-21T23:23:14.396Z,-5.56
2022-11-21T23:25:43.516Z,-5.64
2022-11-21T23:28:12.971Z,-5.69
2022-11-21T23:30:46.722Z,-5.62
2022-11-21T23:33:21.237Z,-5.60
2022-11-21T23:35:50.893Z,-5.54
2022-11-21T23:38:20.374Z,-5.39
2022-11-21T23:40:51.110Z,-5.27
2022-11-21T23:43:20.967Z,-5.20
2022-11-21T23:45:55.070Z,-5.32
2022-11-21T23:48:25.478Z,-5.19
2022-11-21T23:50:54.654Z,-5.19
2022-11-21T23:53:29.622Z,-5.27
2022-11-21T23:55:58.899Z,-5.50
2022-11-21T23:58:28.067Z,-5.45
